Time;durP1;ratioP1;P1;durP2;ratioP2;P2;SDS_P1;SDS_P2;PMS_P1;PMS_P2;Temp;Humidity;BMP_temperature;BMP_pressure;BME280_temperature;BME280_humidity;BME280_pressure;Samples;Min_cycle;Max_cycle;Signal;HPM_P1;HPM_P2
2021/01/11 00:01:29;;;;;;;32.38;16.48;;;-1.20;72.90;;;;;;4998595;28;20080;-62
2021/01/11 00:03:58;;;;;;;37.38;18.27;;;-1.20;72.80;;;;;;5000942;28;20128;-63
2021/01/11 00:06:24;;;;;;;35.90;17.75;;;-1.20;72.70;;;;;;4999895;28;20441;-61
2021/01/11 00:08:49;;;;;;;33.50;17.38;;;-1.20;72.70;;;;;;5001145;28;20038;-63
2021/01/11 00:11:24;;;;;;;34.63;18.02;;;-1.20;73.80;;;;;;4997712;28;20062;-61
2021/01/11 00:13:50;;;;;;;35.67;18.60;;;-1.20;73.20;;;;;;5001991;28;20059;-61
2021/01/11 00:16:16;;;;;;;36.88;18.27;;;-1.20;73.30;;;;;;5005599;28;20057;-62
2021/01/11 00:18:41;;;;;;;36.75;18.50;;;-1.20;73.70;;;;;;4998795;28;20042;-61
2021/01/11 00:21:07;;;;;;;37.75;19.45;;;-1.20;73.90;;;;;;5000007;28;20053;-62
2021/01/11 00:23:33;;;;;;;36.92;17.58;;;-1.20;74.10;;;;;;5000299;28;20509;-61
2021/01/11 00:25:59;;;;;;;36.47;18.55;;;-1.20;74.20;;;;;;5001732;28;20127;-62
2021/01/11 00:28:25;;;;;;;35.58;18.45;;;-1.20;74.30;;;;;;5000862;28;20081;-62
2021/01/11 00:30:50;;;;;;;38.50;18.75;;;-1.20;74.30;;;;;;5000373;28;20045;-63
2021/01/11 00:33:16;;;;;;;36.05;18.75;;;-1.20;74.40;;;;;;5000960;28;20027;-63
2021/01/11 00:35:41;;;;;;;35.17;17.67;;;-1.20;74.70;;;;;;4999527;28;20525;-62
2021/01/11 00:38:07;;;;;;;35.58;17.85;;;-1.20;74.40;;;;;;4999954;28;20485;-63
2021/01/11 00:40:33;;;;;;;36.40;18.52;;;-1.20;74.30;;;;;;5000189;28;20034;-61
2021/01/11 00:42:58;;;;;;;40.67;19.45;;;-1.10;74.30;;;;;;4997958;28;21310;-62
2021/01/11 00:45:24;;;;;;;36.78;18.98;;;-1.10;74.20;;;;;;5000535;28;20034;-63
2021/01/11 00:47:49;;;;;;;36.10;18.42;;;-1.10;74.10;;;;;;4998823;28;20581;-62
2021/01/11 00:50:15;;;;;;;36.97;18.73;;;-1.20;73.90;;;;;;4999268;28;20031;-62
2021/01/11 00:52:41;;;;;;;33.95;17.60;;;-1.20;73.80;;;;;;4995482;28;20065;-62
2021/01/11 00:55:07;;;;;;;37.67;18.98;;;-1.30;73.70;;;;;;4998372;28;20541;-61
2021/01/11 00:57:33;;;;;;;37.90;20.00;;;-1.30;73.60;;;;;;4999742;28;20038;-62
2021/01/11 00:59:59;;;;;;;39.33;19.35;;;-1.40;73.60;;;;;;5000167;28;20030;-62
2021/01/11 01:02:25;;;;;;;37.90;18.80;;;-1.50;73.60;;;;;;4996098;28;20113;-63
2021/01/11 01:04:51;;;;;;;39.33;20.00;;;-1.50;73.80;;;;;;5000519;28;20469;-63
2021/01/11 01:07:17;;;;;;;35.42;19.27;;;-1.60;74.10;;;;;;5001191;28;20045;-63
2021/01/11 01:09:42;;;;;;;39.22;19.55;;;-1.60;74.30;;;;;;4999875;28;20108;-63
2021/01/11 01:12:08;;;;;;;39.63;20.25;;;-1.70;74.40;;;;;;4995864;28;20046;-61
2021/01/11 01:14:34;;;;;;;42.08;20.63;;;-1.80;74.50;;;;;;4999341;28;20084;-62
2021/01/11 01:16:59;;;;;;;41.60;20.08;;;-1.80;75.00;;;;;;4999839;28;20433;-62
2021/01/11 01:19:25;;;;;;;37.38;19.15;;;-1.90;75.00;;;;;;4996840;28;20099;-61
2021/01/11 01:21:50;;;;;;;39.47;19.85;;;-1.90;76.00;;;;;;4999538;28;20569;-61
2021/01/11 01:24:16;;;;;;;40.40;19.30;;;-2.00;75.30;;;;;;4999961;28;20036;-62
2021/01/11 01:26:42;;;;;;;40.08;19.50;;;-2.00;75.60;;;;;;4998875;28;20045;-62
2021/01/11 01:29:07;;;;;;;40.05;19.25;;;-2.00;75.70;;;;;;5000091;28;20041;-62
2021/01/11 01:31:33;;;;;;;38.55;18.67;;;-2.10;75.80;;;;;;4997188;28;20731;-62
2021/01/11 01:33:58;;;;;;;35.92;18.65;;;-2.10;75.90;;;;;;4999869;28;20034;-62
2021/01/11 01:36:24;;;;;;;37.33;18.08;;;-2.10;76.10;;;;;;4997565;28;20532;-61
2021/01/11 01:38:50;;;;;;;38.38;18.48;;;-2.00;76.20;;;;;;4998317;28;20417;-62
2021/01/11 01:41:15;;;;;;;35.75;18.63;;;-2.00;76.30;;;;;;4998096;28;20793;-62
2021/01/11 01:43:41;;;;;;;36.60;18.48;;;-2.00;76.20;;;;;;4997943;28;20037;-61
2021/01/11 01:46:14;;;;;;;35.25;17.63;;;-1.90;76.20;;;;;;4996142;28;20146;-62
2021/01/11 01:48:39;;;;;;;36.65;18.63;;;-1.90;77.10;;;;;;4995477;28;20641;-60
2021/01/11 01:51:05;;;;;;;42.30;18.63;;;-1.90;76.20;;;;;;4999630;28;20068;-61
2021/01/11 01:53:31;;;;;;;33.72;17.77;;;-1.80;76.20;;;;;;4999121;28;20042;-62
2021/01/11 01:55:57;;;;;;;35.28;18.10;;;-1.80;76.20;;;;;;4998808;28;20445;-62
2021/01/11 01:58:23;;;;;;;32.38;15.98;;;-1.80;76.00;;;;;;4997767;28;20037;-62
2021/01/11 02:00:48;;;;;;;35.30;18.42;;;-1.80;76.00;;;;;;4998420;28;20033;-63
2021/01/11 02:03:14;;;;;;;36.47;18.45;;;-1.70;76.10;;;;;;4999318;28;20034;-61
2021/01/11 02:05:40;;;;;;;35.15;17.17;;;-1.70;76.00;;;;;;4998426;28;20062;-62
2021/01/11 02:08:47;;;;;;;36.67;18.05;;;-1.70;75.90;;;;;;4998997;28;20556;-60
2021/01/11 02:11:33;;;;;;;33.13;16.98;;;-1.60;76.00;;;;;;4994004;28;20026;-59
2021/01/11 02:14:33;;;;;;;38.25;18.80;;;-1.60;75.90;;;;;;4999007;28;20476;-61
2021/01/11 02:17:11;;;;;;;35.90;17.60;;;-1.60;75.80;;;;;;4998396;28;20041;-62
2021/01/11 02:20:04;;;;;;;34.35;16.70;;;-1.50;75.70;;;;;;4996842;28;20053;-62
2021/01/11 02:23:09;;;;;;;31.27;16.30;;;-1.50;75.70;;;;;;4998831;28;20057;-62
2021/01/11 02:25:42;;;;;;;33.42;16.88;;;-1.50;75.60;;;;;;4997618;28;20046;-62
2021/01/11 02:28:47;;;;;;;35.42;17.23;;;-1.50;75.40;;;;;;5014735;28;20476;-61
2021/01/11 02:31:15;;;;;;;35.00;16.50;;;-1.50;75.50;;;;;;4975951;28;20038;-61
2021/01/11 02:33:42;;;;;;;32.42;17.02;;;-1.50;75.40;;;;;;5012714;28;20485;-59
2021/01/11 02:36:09;;;;;;;34.22;17.08;;;-1.50;75.40;;;;;;4997258;28;20536;-61
2021/01/11 02:38:37;;;;;;;35.10;17.40;;;-1.40;75.50;;;;;;4998248;28;20022;-62
2021/01/11 02:41:03;;;;;;;36.67;18.00;;;-1.40;75.50;;;;;;4993940;28;20041;-61
2021/01/11 02:43:29;;;;;;;35.83;18.33;;;-1.30;75.50;;;;;;4998055;28;20404;-62
2021/01/11 02:45:55;;;;;;;34.42;16.77;;;-1.30;75.50;;;;;;4996966;28;20034;-62
2021/01/11 02:48:26;;;;;;;35.72;18.58;;;-1.30;75.50;;;;;;4997517;28;20041;-61
2021/01/11 02:51:30;;;;;;;35.63;18.55;;;-1.30;75.30;;;;;;4997678;28;20595;-61
2021/01/11 02:54:23;;;;;;;35.30;17.63;;;-1.20;75.30;;;;;;4997482;28;20042;-62
2021/01/11 02:57:23;;;;;;;32.53;16.15;;;-1.20;75.20;;;;;;4998197;28;20034;-62
2021/01/11 03:00:09;;;;;;;35.38;17.35;;;-1.10;75.20;;;;;;4995133;28;20034;-62
2021/01/11 03:02:43;;;;;;;35.67;17.85;;;-1.20;75.90;;;;;;4994614;28;20033;-62
2021/01/11 03:05:12;;;;;;;33.53;16.85;;;-1.10;75.00;;;;;;4994777;28;20046;-61
2021/01/11 03:07:37;;;;;;;32.58;16.70;;;-1.10;75.00;;;;;;4981124;28;20027;-59
2021/01/11 03:10:03;;;;;;;32.30;16.85;;;-1.10;74.90;;;;;;4996020;28;20030;-62
2021/01/11 03:12:31;;;;;;;30.15;16.20;;;-1.10;74.80;;;;;;4995398;28;20042;-60
2021/01/11 03:14:56;;;;;;;31.35;16.40;;;-1.10;74.70;;;;;;4996126;28;20037;-63
2021/01/11 03:17:22;;;;;;;33.80;16.95;;;-1.10;74.60;;;;;;4998042;28;20529;-62
2021/01/11 03:19:47;;;;;;;33.20;16.88;;;-1.10;74.50;;;;;;4997595;28;20041;-62
2021/01/11 03:22:13;;;;;;;37.45;18.25;;;-1.10;74.50;;;;;;4997687;28;20033;-62
2021/01/11 03:24:40;;;;;;;36.40;18.42;;;-1.10;74.40;;;;;;4998160;28;20037;-62
2021/01/11 03:27:06;;;;;;;32.33;16.40;;;-1.10;74.30;;;;;;4996653;28;20115;-62
2021/01/11 03:29:31;;;;;;;33.72;17.08;;;-1.10;74.20;;;;;;4994942;28;20030;-62
2021/01/11 03:31:57;;;;;;;30.35;15.95;;;-1.10;74.10;;;;;;4996844;28;20029;-62
2021/01/11 03:34:23;;;;;;;32.40;16.48;;;-1.10;74.00;;;;;;4996554;28;20494;-61
2021/01/11 03:36:48;;;;;;;29.73;15.98;;;-1.10;73.80;;;;;;4997653;28;20034;-62
2021/01/11 03:39:14;;;;;;;31.67;16.17;;;-1.10;74.00;;;;;;4996619;28;20126;-62
2021/01/11 03:41:42;;;;;;;30.20;15.60;;;-1.10;73.70;;;;;;4995504;28;20034;-61
2021/01/11 03:44:09;;;;;;;31.98;16.17;;;-1.10;73.60;;;;;;4998457;28;20406;-62
2021/01/11 03:46:35;;;;;;;30.15;15.13;;;-1.20;73.60;;;;;;4995160;28;20501;-62
2021/01/11 03:49:00;;;;;;;32.78;15.73;;;-1.20;74.50;;;;;;4995545;28;20108;-62
2021/01/11 03:51:26;;;;;;;31.83;16.05;;;-1.20;73.60;;;;;;4996203;28;20034;-60
2021/01/11 03:53:52;;;;;;;31.13;15.35;;;-1.20;73.60;;;;;;4996635;28;20156;-61
2021/01/11 03:56:18;;;;;;;33.42;15.75;;;-1.20;73.50;;;;;;4995187;28;20925;-62
2021/01/11 03:58:44;;;;;;;31.13;15.88;;;-1.20;73.50;;;;;;4994177;28;20038;-61
2021/01/11 04:01:09;;;;;;;32.40;17.02;;;-1.20;73.40;;;;;;4994996;28;20061;-61
2021/01/11 04:03:35;;;;;;;34.20;16.75;;;-1.20;73.30;;;;;;4996373;28;20111;-62
2021/01/11 04:06:01;;;;;;;29.13;14.90;;;-1.20;73.10;;;;;;4996758;28;20097;-62
2021/01/11 04:08:27;;;;;;;34.40;16.50;;;-1.30;73.10;;;;;;4994751;28;20037;-62
2021/01/11 04:10:53;;;;;;;36.80;18.05;;;-1.40;73.10;;;;;;4994947;28;20038;-61
2021/01/11 04:13:19;;;;;;;38.13;18.92;;;-1.40;73.10;;;;;;4996603;28;20029;-61
2021/01/11 04:15:45;;;;;;;34.97;17.00;;;-1.40;72.90;;;;;;4997469;28;20037;-62
2021/01/11 04:18:12;;;;;;;34.85;17.40;;;-1.50;73.30;;;;;;4997899;28;20670;-63
2021/01/11 04:20:38;;;;;;;40.25;18.00;;;-1.60;73.50;;;;;;4994609;28;20033;-61
2021/01/11 04:23:04;;;;;;;36.72;17.85;;;-1.70;73.70;;;;;;4995212;28;20038;-62
2021/01/11 04:25:31;;;;;;;35.50;16.98;;;-1.70;74.00;;;;;;4995985;28;20057;-62
2021/01/11 04:27:58;;;;;;;36.88;17.50;;;-1.70;74.30;;;;;;4995254;28;20045;-61
2021/01/11 04:30:24;;;;;;;33.95;16.90;;;-1.70;74.50;;;;;;4997446;28;20037;-62
2021/01/11 04:32:50;;;;;;;35.35;17.55;;;-1.70;74.60;;;;;;4999317;28;20437;-62
2021/01/11 04:35:19;;;;;;;34.65;17.60;;;-1.70;74.60;;;;;;4995668;28;20030;-62
2021/01/11 04:37:44;;;;;;;37.30;17.92;;;-1.70;74.50;;;;;;4997006;28;20034;-61
2021/01/11 04:40:10;;;;;;;37.47;18.02;;;-1.70;74.30;;;;;;4999156;28;20655;-62
2021/01/11 04:42:55;;;;;;;36.50;17.50;;;-1.70;74.10;;;;;;4997401;28;20045;-62
2021/01/11 04:45:21;;;;;;;37.27;17.87;;;-1.70;74.30;;;;;;4998353;28;20532;-63
2021/01/11 04:47:58;;;;;;;35.33;17.38;;;-1.70;74.50;;;;;;4997136;28;20832;-63
2021/01/11 04:50:25;;;;;;;36.97;17.95;;;-1.70;74.60;;;;;;4995472;28;20104;-63
2021/01/11 04:52:51;;;;;;;54.08;25.30;;;-1.80;74.50;;;;;;4995034;28;20656;-62
2021/01/11 04:55:18;;;;;;;41.78;21.33;;;-1.80;74.60;;;;;;4996308;28;20049;-62
2021/01/11 04:57:57;;;;;;;37.80;19.25;;;-1.80;74.70;;;;;;5000541;28;20027;-62
2021/01/11 05:00:27;;;;;;;38.17;20.45;;;-1.70;74.70;;;;;;4999448;28;20188;-62
2021/01/11 05:03:00;;;;;;;43.75;21.30;;;-1.70;74.80;;;;;;5000638;28;20041;-63
2021/01/11 05:05:28;;;;;;;56.85;27.85;;;-1.60;74.80;;;;;;5000051;28;20046;-63
2021/01/11 05:07:54;;;;;;;48.08;24.52;;;-1.60;74.70;;;;;;5000516;28;20053;-61
2021/01/11 05:10:40;;;;;;;40.17;20.17;;;-1.60;74.60;;;;;;5000187;28;20030;-62
2021/01/11 05:13:09;;;;;;;35.40;17.98;;;-1.60;74.40;;;;;;4999404;28;20035;-61
2021/01/11 05:15:37;;;;;;;31.27;15.88;;;-1.60;74.30;;;;;;5000075;28;20041;-61
2021/01/11 05:18:15;;;;;;;33.78;17.27;;;-1.50;74.30;;;;;;4998587;28;20045;-62
2021/01/11 05:20:41;;;;;;;36.97;17.60;;;-1.50;74.20;;;;;;4992536;28;20178;-63
2021/01/11 05:23:15;;;;;;;38.78;18.17;;;-1.50;74.30;;;;;;4999702;28;20042;-62
2021/01/11 05:25:42;;;;;;;38.58;18.00;;;-1.50;74.30;;;;;;5000797;28;20023;-63
2021/01/11 05:28:08;;;;;;;37.42;18.20;;;-1.50;74.40;;;;;;4999140;28;20045;-63
2021/01/11 05:30:39;;;;;;;39.92;18.30;;;-1.50;74.50;;;;;;4999713;28;20015;-62
2021/01/11 05:33:07;;;;;;;36.95;17.90;;;-1.50;74.30;;;;;;5005569;28;20030;-63
2021/01/11 05:35:33;;;;;;;38.08;18.42;;;-1.50;74.40;;;;;;4999480;28;20576;-63
2021/01/11 05:37:59;;;;;;;38.20;19.73;;;-1.60;74.50;;;;;;4999954;28;20030;-63
2021/01/11 05:40:27;;;;;;;37.80;18.88;;;-1.50;74.40;;;;;;4996350;28;20572;-63
2021/01/11 05:43:00;;;;;;;37.55;18.88;;;-1.60;74.30;;;;;;4997560;28;20034;-62
2021/01/11 05:45:35;;;;;;;35.70;17.35;;;-1.60;74.20;;;;;;4999738;28;20037;-63
2021/01/11 05:48:06;;;;;;;37.55;18.48;;;-1.70;74.30;;;;;;4999816;28;20596;-63
2021/01/11 05:50:45;;;;;;;38.08;18.45;;;-1.70;74.60;;;;;;4998590;28;20286;-61
2021/01/11 05:53:17;;;;;;;36.90;17.95;;;-1.70;74.60;;;;;;5000411;28;20032;-64
2021/01/11 05:55:44;;;;;;;36.80;18.27;;;-1.70;74.70;;;;;;5000106;28;20045;-62
2021/01/11 05:58:10;;;;;;;35.53;18.10;;;-1.80;74.60;;;;;;5013445;28;20058;-62
2021/01/11 06:00:37;;;;;;;37.45;18.33;;;-1.80;74.50;;;;;;4998013;28;20141;-61
2021/01/11 06:03:06;;;;;;;35.13;18.02;;;-1.80;74.60;;;;;;4999794;28;20501;-63
2021/01/11 06:05:33;;;;;;;30.17;15.98;;;-1.90;74.50;;;;;;4999439;28;20065;-61
2021/01/11 06:08:00;;;;;;;36.55;17.25;;;-1.90;74.80;;;;;;4999721;28;20045;-61
2021/01/11 06:10:26;;;;;;;34.92;17.73;;;-1.90;75.00;;;;;;4997463;28;20041;-63
2021/01/11 06:12:53;;;;;;;36.45;16.55;;;-1.90;75.20;;;;;;5000113;28;20046;-63
2021/01/11 06:15:20;;;;;;;33.85;16.55;;;-1.90;75.20;;;;;;4999224;28;20037;-63
2021/01/11 06:17:49;;;;;;;37.25;16.80;;;-1.90;75.20;;;;;;4997955;28;20073;-63
2021/01/11 06:20:26;;;;;;;33.35;16.90;;;-1.90;75.20;;;;;;4997968;28;20504;-63
2021/01/11 06:22:52;;;;;;;36.67;17.85;;;-1.80;75.00;;;;;;4999771;28;20625;-63
2021/01/11 06:25:17;;;;;;;37.35;17.90;;;-1.80;74.90;;;;;;5000166;28;20044;-63
2021/01/11 06:28:11;;;;;;;38.28;16.77;;;-1.80;74.80;;;;;;5000009;28;20297;-63
2021/01/11 06:30:42;;;;;;;33.00;16.80;;;-1.80;75.00;;;;;;4997896;28;20054;-63
2021/01/11 06:33:09;;;;;;;38.30;17.90;;;-1.80;75.00;;;;;;4998776;28;20046;-62
2021/01/11 06:35:42;;;;;;;35.45;16.30;;;-1.80;74.90;;;;;;4999009;28;20038;-63
2021/01/11 06:38:09;;;;;;;32.28;16.58;;;-1.80;75.00;;;;;;4998742;28;20451;-62
2021/01/11 06:40:35;;;;;;;33.97;17.40;;;-1.80;75.00;;;;;;4998340;28;20064;-61
2021/01/11 06:43:03;;;;;;;35.28;17.45;;;-1.80;75.00;;;;;;4997404;28;20029;-62
2021/01/11 06:45:39;;;;;;;36.53;16.83;;;-1.70;75.10;;;;;;4997641;28;20036;-63
2021/01/11 06:48:07;;;;;;;34.70;17.13;;;-1.70;75.00;;;;;;4999281;28;20065;-63
2021/01/11 06:50:33;;;;;;;34.83;17.02;;;-1.70;74.90;;;;;;4996347;28;20026;-62
2021/01/11 06:53:01;;;;;;;33.92;16.52;;;-1.70;74.80;;;;;;4999154;28;20042;-62
2021/01/11 06:55:28;;;;;;;35.65;16.63;;;-1.60;74.80;;;;;;4997890;28;20064;-62
2021/01/11 06:57:59;;;;;;;28.38;14.43;;;-1.60;74.80;;;;;;4998750;28;20033;-63
2021/01/11 07:00:37;;;;;;;32.80;15.32;;;-1.60;74.80;;;;;;4998637;28;20041;-62
2021/01/11 07:03:04;;;;;;;32.15;15.60;;;-1.50;74.70;;;;;;4998761;28;20034;-60
2021/01/11 07:05:33;;;;;;;34.03;15.75;;;-1.50;74.60;;;;;;4998053;28;20113;-64
2021/01/11 07:08:04;;;;;;;33.47;16.00;;;-1.50;74.50;;;;;;4998414;28;20069;-63
2021/01/11 07:10:30;;;;;;;40.42;19.23;;;-1.50;74.40;;;;;;4995857;28;20440;-60
2021/01/11 07:13:18;;;;;;;51.00;23.67;;;-1.50;74.40;;;;;;4998294;28;20034;-61
2021/01/11 07:16:10;;;;;;;43.63;19.70;;;-1.40;74.30;;;;;;4998707;28;20030;-62
2021/01/11 07:18:39;;;;;;;35.45;17.10;;;-1.40;74.10;;;;;;4995546;28;20029;-62
2021/01/11 07:21:12;;;;;;;35.53;16.45;;;-1.40;74.10;;;;;;4998225;28;20038;-63
2021/01/11 07:23:38;;;;;;;33.80;16.50;;;-1.40;74.00;;;;;;4999239;28;20061;-62
2021/01/11 07:26:08;;;;;;;33.60;15.80;;;-1.40;74.00;;;;;;4999224;28;20402;-62
2021/01/11 07:28:34;;;;;;;32.97;16.35;;;-1.40;74.00;;;;;;4997091;28;20027;-63
2021/01/11 07:31:00;;;;;;;33.30;16.30;;;-1.40;74.10;;;;;;4998098;28;20592;-62
2021/01/11 07:33:25;;;;;;;31.55;15.20;;;-1.40;74.00;;;;;;4998296;28;20034;-63
2021/01/11 07:35:51;;;;;;;32.97;16.15;;;-1.40;74.00;;;;;;4998655;28;20046;-62
2021/01/11 07:38:18;;;;;;;33.92;15.60;;;-1.40;74.00;;;;;;4998127;28;20057;-63
2021/01/11 07:40:44;;;;;;;35.33;18.63;;;-1.40;74.00;;;;;;4998475;28;20133;-63
2021/01/11 07:43:10;;;;;;;33.58;16.38;;;-1.40;73.90;;;;;;4998268;28;20157;-63
2021/01/11 07:45:36;;;;;;;27.83;13.27;;;-1.40;73.70;;;;;;4999060;28;20030;-61
2021/01/11 07:48:02;;;;;;;27.13;13.90;;;-1.40;73.50;;;;;;4996417;28;20397;-62
2021/01/11 07:50:28;;;;;;;27.55;13.45;;;-1.40;73.40;;;;;;4996952;28;20057;-63
2021/01/11 07:52:58;;;;;;;23.85;12.25;;;-1.40;73.40;;;;;;4997966;28;20038;-62
2021/01/11 07:55:34;;;;;;;25.23;12.32;;;-1.50;73.40;;;;;;4998343;28;20034;-63
2021/01/11 07:58:03;;;;;;;24.58;12.52;;;-1.50;73.40;;;;;;4997064;28;20180;-63
2021/01/11 08:00:28;;;;;;;25.65;12.85;;;-1.60;73.50;;;;;;4996999;28;20030;-63
2021/01/11 08:02:55;;;;;;;26.67;13.85;;;-1.60;73.60;;;;;;4989826;28;20038;-62
2021/01/11 08:05:25;;;;;;;25.52;13.45;;;-1.60;73.70;;;;;;5001047;28;20034;-62
2021/01/11 08:08:05;;;;;;;27.83;12.95;;;-1.70;73.80;;;;;;5002943;28;20045;-61
2021/01/11 08:10:32;;;;;;;26.35;13.27;;;-1.60;73.90;;;;;;4998667;28;20561;-63
2021/01/11 08:13:05;;;;;;;27.90;14.18;;;-1.70;74.00;;;;;;5016662;28;20061;-62
2021/01/11 08:15:31;;;;;;;27.73;13.32;;;-1.70;74.10;;;;;;5002730;28;20052;-62
2021/01/11 08:17:57;;;;;;;28.40;13.52;;;-1.70;74.10;;;;;;5001594;28;20498;-62
2021/01/11 08:20:24;;;;;;;25.55;12.85;;;-1.70;74.10;;;;;;5001360;28;20039;-61
2021/01/11 08:22:50;;;;;;;61.03;27.80;;;-1.70;74.00;;;;;;5001750;28;20037;-62
2021/01/11 08:25:16;;;;;;;28.58;13.77;;;-1.70;74.10;;;;;;5002366;28;20386;-62
2021/01/11 08:27:46;;;;;;;33.55;14.82;;;-1.80;74.10;;;;;;5001209;28;20034;-62
2021/01/11 08:30:15;;;;;;;26.95;13.35;;;-1.80;74.10;;;;;;5000784;28;20026;-61
2021/01/11 08:32:42;;;;;;;25.02;13.32;;;-1.70;74.30;;;;;;4999371;28;20062;-63
2021/01/11 08:35:13;;;;;;;26.20;12.98;;;-1.70;74.30;;;;;;5001962;28;20576;-62
2021/01/11 08:37:40;;;;;;;27.25;12.43;;;-1.70;74.30;;;;;;5000926;28;20121;-63
2021/01/11 08:40:11;;;;;;;25.60;12.68;;;-1.70;74.30;;;;;;5000387;28;20153;-61
2021/01/11 08:42:39;;;;;;;28.42;13.63;;;-1.70;74.30;;;;;;5000966;28;20038;-63
2021/01/11 08:45:37;;;;;;;26.20;13.02;;;-1.70;74.30;;;;;;4999847;28;20065;-63
2021/01/11 08:48:14;;;;;;;27.77;13.18;;;-1.70;74.30;;;;;;5000591;28;20034;-61
2021/01/11 08:50:42;;;;;;;28.15;13.13;;;-1.70;74.30;;;;;;5000186;28;20034;-63
2021/01/11 08:53:28;;;;;;;30.13;13.70;;;-1.70;74.30;;;;;;5000810;28;20037;-61
2021/01/11 08:56:08;;;;;;;26.95;12.45;;;-1.70;74.30;;;;;;5002662;28;20414;-61
2021/01/11 08:58:38;;;;;;;25.75;12.43;;;-1.70;74.30;;;;;;5000099;28;20015;-62
2021/01/11 09:01:30;;;;;;;29.85;12.93;;;-1.70;74.30;;;;;;5000265;28;20042;-63
2021/01/11 09:03:58;;;;;;;25.95;13.60;;;-1.70;74.30;;;;;;5001343;28;20038;-62
2021/01/11 09:06:46;;;;;;;25.88;12.48;;;-1.70;74.30;;;;;;4999585;28;20037;-63
2021/01/11 09:09:13;;;;;;;25.30;13.00;;;-1.70;74.20;;;;;;5001040;28;20034;-63
2021/01/11 09:11:40;;;;;;;29.27;13.90;;;-1.70;74.30;;;;;;4999184;28;20034;-62
2021/01/11 09:14:17;;;;;;;26.20;13.35;;;-1.70;74.30;;;;;;5000986;28;20121;-63
2021/01/11 09:16:46;;;;;;;26.30;12.65;;;-1.60;74.40;;;;;;4999918;28;20041;-63
2021/01/11 09:19:18;;;;;;;29.80;13.65;;;-1.60;74.40;;;;;;5000969;28;20036;-63
2021/01/11 09:21:56;;;;;;;29.27;13.95;;;-1.60;74.30;;;;;;5000697;28;20038;-63
2021/01/11 09:24:22;;;;;;;29.42;14.00;;;-1.50;74.50;;;;;;4999937;28;20026;-63
2021/01/11 09:26:47;;;;;;;23.90;12.73;;;-1.40;74.60;;;;;;5001278;28;20053;-62
2021/01/11 09:29:13;;;;;;;26.58;13.35;;;-1.40;74.40;;;;;;4999964;28;20061;-62
2021/01/11 09:31:39;;;;;;;28.73;14.10;;;-1.40;74.30;;;;;;5000459;28;20437;-63
2021/01/11 09:34:04;;;;;;;28.52;13.43;;;-1.30;74.10;;;;;;5001633;28;20062;-63
2021/01/11 09:36:38;;;;;;;28.92;14.15;;;-1.30;74.10;;;;;;5000551;28;20528;-62
2021/01/11 09:39:09;;;;;;;29.57;14.73;;;-1.30;74.10;;;;;;4999838;28;20056;-63
2021/01/11 09:41:49;;;;;;;27.08;13.73;;;-1.20;74.20;;;;;;5001815;28;20030;-62
2021/01/11 09:44:16;;;;;;;41.38;20.05;;;-1.20;74.10;;;;;;4999845;28;20117;-62
2021/01/11 09:46:44;;;;;;;25.77;14.48;;;-1.10;75.10;;;;;;4999054;28;20042;-63
2021/01/11 09:49:09;;;;;;;29.13;14.05;;;-1.00;74.00;;;;;;4999750;28;20361;-63
2021/01/11 09:51:35;;;;;;;38.92;19.95;;;-1.00;73.70;;;;;;4999947;28;20105;-61
2021/01/11 09:54:01;;;;;;;40.95;21.27;;;-1.00;73.60;;;;;;5000157;28;20038;-63
2021/01/11 09:56:26;;;;;;;42.08;18.77;;;-1.00;73.60;;;;;;5000682;28;20513;-62
2021/01/11 09:58:53;;;;;;;33.58;16.38;;;-1.00;73.60;;;;;;4997812;28;20275;-61
2021/01/11 10:01:18;;;;;;;28.30;14.85;;;-1.00;73.50;;;;;;4999132;28;20026;-63
2021/01/11 10:03:44;;;;;;;32.65;14.90;;;-1.00;73.50;;;;;;5000433;28;20445;-61
2021/01/11 10:06:10;;;;;;;28.70;14.25;;;-1.00;73.50;;;;;;5000429;28;20516;-62
2021/01/11 10:08:36;;;;;;;28.60;15.60;;;-1.00;73.30;;;;;;4998354;28;20494;-62
2021/01/11 10:11:11;;;;;;;30.92;14.45;;;-1.00;73.30;;;;;;4998025;28;20392;-62
2021/01/11 10:13:37;;;;;;;29.73;14.57;;;-0.90;73.40;;;;;;4998957;28;20243;-63
2021/01/11 10:16:03;;;;;;;27.77;14.07;;;-1.00;73.50;;;;;;5000038;28;20156;-62
2021/01/11 10:18:28;;;;;;;37.15;16.60;;;-0.90;73.60;;;;;;4998907;28;20038;-63
2021/01/11 10:20:54;;;;;;;27.98;15.43;;;-0.90;73.60;;;;;;4999956;28;20297;-63
2021/01/11 10:23:19;;;;;;;26.75;14.25;;;-0.80;73.40;;;;;;4999725;28;20581;-63
2021/01/11 10:25:45;;;;;;;28.92;14.93;;;-0.90;73.20;;;;;;5000691;28;20022;-62
2021/01/11 10:28:12;;;;;;;32.85;15.40;;;-0.80;72.90;;;;;;4998012;28;20042;-61
2021/01/11 10:30:38;;;;;;;28.73;15.07;;;-0.80;73.00;;;;;;4998105;28;20958;-63
2021/01/11 10:33:03;;;;;;;27.00;14.65;;;-0.80;73.20;;;;;;4998439;28;20145;-62
2021/01/11 10:35:29;;;;;;;30.25;15.10;;;-0.80;73.30;;;;;;5000298;28;20041;-62
2021/01/11 10:37:54;;;;;;;31.20;14.23;;;-0.80;73.10;;;;;;4999367;28;20081;-62
2021/01/11 10:40:20;;;;;;;31.15;15.43;;;-0.80;72.90;;;;;;5000236;28;20054;-62
2021/01/11 10:42:47;;;;;;;37.60;18.92;;;-0.80;72.80;;;;;;4999681;28;20038;-63
2021/01/11 10:45:13;;;;;;;31.10;17.10;;;-0.80;72.90;;;;;;4999711;28;20068;-63
2021/01/11 10:47:39;;;;;;;32.47;16.75;;;-0.70;72.80;;;;;;4999249;28;20057;-63
2021/01/11 10:50:05;;;;;;;34.17;14.88;;;-0.70;72.70;;;;;;5012303;28;20026;-63
2021/01/11 10:52:31;;;;;;;29.15;14.52;;;-0.70;72.50;;;;;;4997989;28;20336;-61
2021/01/11 10:54:56;;;;;;;35.17;16.75;;;-0.70;72.40;;;;;;4999612;28;20460;-61
2021/01/11 10:57:22;;;;;;;35.20;15.80;;;-0.70;72.30;;;;;;4998025;28;20044;-63
2021/01/11 10:59:47;;;;;;;33.03;15.52;;;-0.70;72.30;;;;;;4997273;28;20050;-62
2021/01/11 11:02:13;;;;;;;34.50;15.77;;;-0.70;72.60;;;;;;4999483;28;20038;-63
2021/01/11 11:04:39;;;;;;;31.80;15.60;;;-0.60;72.90;;;;;;4998492;28;20089;-63
2021/01/11 11:07:04;;;;;;;33.25;15.73;;;-0.60;73.00;;;;;;4997862;28;20121;-63
2021/01/11 11:09:30;;;;;;;30.25;15.25;;;-0.50;73.10;;;;;;4999380;28;20109;-63
2021/01/11 11:11:56;;;;;;;35.10;17.67;;;-0.40;73.10;;;;;;5012936;28;20073;-62
2021/01/11 11:14:21;;;;;;;31.98;15.75;;;-0.40;71.60;;;;;;4998066;28;20041;-63
2021/01/11 11:16:47;;;;;;;32.83;16.13;;;-0.40;71.90;;;;;;4998951;28;20030;-63
2021/01/11 11:19:13;;;;;;;31.00;15.20;;;-0.40;72.20;;;;;;4999232;28;20082;-62
2021/01/11 11:21:39;;;;;;;33.22;16.45;;;-0.30;72.50;;;;;;4999031;28;20085;-63
2021/01/11 11:24:05;;;;;;;31.27;16.10;;;-0.30;72.50;;;;;;5000049;28;20052;-62
2021/01/11 11:26:31;;;;;;;31.05;16.05;;;-0.20;72.30;;;;;;4999116;28;20029;-63
2021/01/11 11:28:57;;;;;;;31.63;16.25;;;-0.20;72.30;;;;;;4999457;28;20113;-63
2021/01/11 11:31:22;;;;;;;32.22;17.30;;;-0.20;72.20;;;;;;4995367;28;20114;-63
2021/01/11 11:33:48;;;;;;;32.20;16.65;;;-0.10;72.00;;;;;;4999705;28;20116;-62
2021/01/11 11:36:14;;;;;;;35.70;16.58;;;-0.10;71.20;;;;;;4998498;28;20029;-62
2021/01/11 11:38:39;;;;;;;31.65;15.38;;;-0.10;71.30;;;;;;4997598;28;21228;-63
2021/01/11 11:41:05;;;;;;;33.00;16.25;;;-0.10;71.50;;;;;;5002576;28;20100;-63
2021/01/11 11:43:30;;;;;;;31.67;15.98;;;-0.10;71.70;;;;;;5003343;28;20375;-63
2021/01/11 11:45:56;;;;;;;31.90;16.65;;;-0.10;71.70;;;;;;5001835;28;20125;-63
2021/01/11 11:48:22;;;;;;;30.52;16.20;;;0.00;71.70;;;;;;5002006;28;20027;-63
2021/01/11 11:50:47;;;;;;;31.13;16.25;;;0.00;71.70;;;;;;5001438;28;20069;-62
2021/01/11 11:53:14;;;;;;;36.33;16.52;;;0.00;71.70;;;;;;5002892;28;20023;-63
2021/01/11 11:55:40;;;;;;;33.15;16.38;;;0.10;71.50;;;;;;5002706;28;20568;-63
2021/01/11 11:58:05;;;;;;;32.72;17.23;;;0.10;70.80;;;;;;5000506;28;20113;-64
2021/01/11 12:00:31;;;;;;;33.45;16.77;;;0.10;71.70;;;;;;5002053;28;20117;-64
2021/01/11 12:02:57;;;;;;;32.70;16.15;;;0.10;70.80;;;;;;5003274;28;20046;-62
2021/01/11 12:05:22;;;;;;;33.70;17.35;;;0.10;71.00;;;;;;5002757;28;20053;-63
2021/01/11 12:07:53;;;;;;;31.60;15.27;;;0.10;71.10;;;;;;5001668;28;20514;-63
2021/01/11 12:10:20;;;;;;;36.60;17.00;;;0.10;72.00;;;;;;5002251;28;20123;-62
2021/01/11 12:12:47;;;;;;;35.88;17.30;;;0.20;71.30;;;;;;5000459;28;20040;-63
2021/01/11 12:15:15;;;;;;;34.95;17.02;;;0.20;71.20;;;;;;5003500;28;20038;-62
2021/01/11 12:17:41;;;;;;;35.25;17.23;;;0.20;70.90;;;;;;5001649;28;20038;-63
2021/01/11 12:20:08;;;;;;;35.83;17.92;;;0.30;70.80;;;;;;5003428;28;20290;-63
2021/01/11 12:22:35;;;;;;;33.72;16.90;;;0.30;70.00;;;;;;5001156;28;20041;-62
2021/01/11 12:25:01;;;;;;;35.15;17.63;;;0.30;69.80;;;;;;5001762;28;20411;-62
2021/01/11 12:27:26;;;;;;;35.40;17.45;;;0.20;69.60;;;;;;5001576;28;20049;-63
2021/01/11 12:29:52;;;;;;;33.70;17.42;;;0.20;69.60;;;;;;5002830;28;20038;-63
2021/01/11 12:32:18;;;;;;;35.72;17.48;;;0.10;69.60;;;;;;5001190;28;20054;-63
2021/01/11 12:34:44;;;;;;;35.90;18.90;;;0.10;69.50;;;;;;5002160;28;20394;-63
2021/01/11 12:37:14;;;;;;;36.55;17.92;;;0.00;69.40;;;;;;5000785;28;20045;-63